sensor_id;sensor_type;location;lat;lon;timestamp;temperature;humidity
49042;DHT22;34859;51.608;11.462;2022-08-04T00:03:09;19.20;99.90
49042;DHT22;34859;51.608;11.462;2022-08-04T00:06:03;19.10;99.90
49042;DHT22;34859;51.608;11.462;2022-08-04T00:08:51;19.10;99.90
49042;DHT22;34859;51.608;11.462;2022-08-04T00:11:38;19.10;99.90
49042;DHT22;34859;51.608;11.462;2022-08-04T00:14:29;19.10;99.90
49042;DHT22;34859;51.608;11.462;2022-08-04T00:17:23;19.00;99.90
49042;DHT22;34859;51.608;11.462;2022-08-04T00:20:09;19.00;99.90
49042;DHT22;34859;51.608;11.462;2022-08-04T00:22:55;18.90;99.90
49042;DHT22;34859;51.608;11.462;2022-08-04T00:25:40;18.90;99.90
49042;DHT22;34859;51.608;11.462;2022-08-04T00:28:22;18.90;99.90
49042;DHT22;34859;51.608;11.462;2022-08-04T00:31:09;18.90;99.90
49042;DHT22;34859;51.608;11.462;2022-08-04T00:33:53;18.80;99.90
49042;DHT22;34859;51.608;11.462;2022-08-04T00:36:42;18.80;99.90
49042;DHT22;34859;51.608;11.462;2022-08-04T00:39:25;18.70;99.90
49042;DHT22;34859;51.608;11.462;2022-08-04T00:45:40;18.70;99.90
49042;DHT22;34859;51.608;11.462;2022-08-04T00:48:36;18.70;99.90
49042;DHT22;34859;51.608;11.462;2022-08-04T00:54:37;18.70;99.90
49042;DHT22;34859;51.608;11.462;2022-08-04T01:00:10;18.60;99.90
49042;DHT22;34859;51.608;11.462;2022-08-04T01:03:19;18.50;99.90
49042;DHT22;34859;51.608;11.462;2022-08-04T01:15:35;18.40;99.90
49042;DHT22;34859;51.608;11.462;2022-08-04T01:18:35;18.40;99.90
49042;DHT22;34859;51.608;11.462;2022-08-04T01:31:01;18.20;99.90
49042;DHT22;34859;51.608;11.462;2022-08-04T01:33:48;18.20;99.90
49042;DHT22;34859;51.608;11.462;2022-08-04T01:36:34;18.20;99.90
49042;DHT22;34859;51.608;11.462;2022-08-04T01:39:19;18.10;99.90
49042;DHT22;34859;51.608;11.462;2022-08-04T01:42:24;18.10;99.90
49042;DHT22;34859;51.608;11.462;2022-08-04T01:45:10;18.10;99.90
49042;DHT22;34859;51.608;11.462;2022-08-04T01:47:55;18.00;99.90
49042;DHT22;34859;51.608;11.462;2022-08-04T01:50:37;18.00;99.90
49042;DHT22;34859;51.608;11.462;2022-08-04T01:53:30;18.00;99.90
49042;DHT22;34859;51.608;11.462;2022-08-04T01:56:15;18.00;99.90
49042;DHT22;34859;51.608;11.462;2022-08-04T01:58:59;18.00;99.90
49042;DHT22;34859;51.608;11.462;2022-08-04T02:01:46;18.00;99.90
49042;DHT22;34859;51.608;11.462;2022-08-04T02:04:30;17.90;99.90
49042;DHT22;34859;51.608;11.462;2022-08-04T02:07:54;18.00;99.90
49042;DHT22;34859;51.608;11.462;2022-08-04T02:10:53;17.90;99.90
49042;DHT22;34859;51.608;11.462;2022-08-04T02:19:29;17.90;99.90
49042;DHT22;34859;51.608;11.462;2022-08-04T02:22:17;17.90;99.90
49042;DHT22;34859;51.608;11.462;2022-08-04T02:25:08;17.80;99.90
49042;DHT22;34859;51.608;11.462;2022-08-04T02:31:26;17.70;99.90
49042;DHT22;34859;51.608;11.462;2022-08-04T02:34:16;17.70;99.90
49042;DHT22;34859;51.608;11.462;2022-08-04T02:37:05;17.70;99.90
49042;DHT22;34859;51.608;11.462;2022-08-04T02:39:52;17.70;99.90
49042;DHT22;34859;51.608;11.462;2022-08-04T02:42:34;17.70;99.90
49042;DHT22;34859;51.608;11.462;2022-08-04T02:45:18;17.70;99.90
49042;DHT22;34859;51.608;11.462;2022-08-04T02:48:03;17.70;99.90
49042;DHT22;34859;51.608;11.462;2022-08-04T02:50:48;17.60;99.90
49042;DHT22;34859;51.608;11.462;2022-08-04T02:53:36;17.60;99.90
49042;DHT22;34859;51.608;11.462;2022-08-04T02:56:22;17.60;99.90
49042;DHT22;34859;51.608;11.462;2022-08-04T02:59:08;17.60;99.90
49042;DHT22;34859;51.608;11.462;2022-08-04T03:01:55;17.60;99.90
49042;DHT22;34859;51.608;11.462;2022-08-04T03:04:53;17.60;99.90
49042;DHT22;34859;51.608;11.462;2022-08-04T03:10:43;17.50;99.90
49042;DHT22;34859;51.608;11.462;2022-08-04T03:13:36;17.50;99.90
49042;DHT22;34859;51.608;11.462;2022-08-04T03:26:24;17.40;99.90
49042;DHT22;34859;51.608;11.462;2022-08-04T03:48:52;17.20;99.90
49042;DHT22;34859;51.608;11.462;2022-08-04T03:52:00;17.20;99.90
49042;DHT22;34859;51.608;11.462;2022-08-04T03:55:29;17.20;99.90
49042;DHT22;34859;51.608;11.462;2022-08-04T04:14:17;17.20;99.90
49042;DHT22;34859;51.608;11.462;2022-08-04T04:23:22;17.20;99.90
49042;DHT22;34859;51.608;11.462;2022-08-04T04:48:16;17.60;99.90
49042;DHT22;34859;51.608;11.462;2022-08-04T04:56:50;17.80;99.90
49042;DHT22;34859;51.608;11.462;2022-08-04T04:59:40;17.90;99.90
49042;DHT22;34859;51.608;11.462;2022-08-04T05:08:30;18.10;99.90
49042;DHT22;34859;51.608;11.462;2022-08-04T05:11:40;18.20;99.90
49042;DHT22;34859;51.608;11.462;2022-08-04T05:14:30;18.30;99.90
49042;DHT22;34859;51.608;11.462;2022-08-04T05:20:10;18.50;99.90
49042;DHT22;34859;51.608;11.462;2022-08-04T05:23:01;18.60;99.90
49042;DHT22;34859;51.608;11.462;2022-08-04T05:25:52;18.70;99.90
49042;DHT22;34859;51.608;11.462;2022-08-04T05:28:43;18.80;99.90
49042;DHT22;34859;51.608;11.462;2022-08-04T05:31:36;18.90;99.90
49042;DHT22;34859;51.608;11.462;2022-08-04T05:34:29;18.90;99.90
49042;DHT22;34859;51.608;11.462;2022-08-04T05:37:16;19.00;99.90
49042;DHT22;34859;51.608;11.462;2022-08-04T05:40:05;19.10;99.90
49042;DHT22;34859;51.608;11.462;2022-08-04T05:42:50;19.10;99.90
49042;DHT22;34859;51.608;11.462;2022-08-04T05:45:35;19.20;99.90
49042;DHT22;34859;51.608;11.462;2022-08-04T05:48:19;19.30;99.90
49042;DHT22;34859;51.608;11.462;2022-08-04T05:51:04;19.30;99.90
49042;DHT22;34859;51.608;11.462;2022-08-04T05:53:52;19.40;99.90
49042;DHT22;34859;51.608;11.462;2022-08-04T05:56:38;19.50;99.90
49042;DHT22;34859;51.608;11.462;2022-08-04T05:59:20;19.60;99.90
49042;DHT22;34859;51.608;11.462;2022-08-04T06:02:07;19.60;99.90
49042;DHT22;34859;51.608;11.462;2022-08-04T06:04:52;19.70;99.90
49042;DHT22;34859;51.608;11.462;2022-08-04T06:07:37;19.90;99.90
49042;DHT22;34859;51.608;11.462;2022-08-04T06:10:22;20.00;99.90
49042;DHT22;34859;51.608;11.462;2022-08-04T06:13:10;20.10;99.90
49042;DHT22;34859;51.608;11.462;2022-08-04T06:15:54;20.20;99.90
49042;DHT22;34859;51.608;11.462;2022-08-04T06:18:39;20.40;99.90
49042;DHT22;34859;51.608;11.462;2022-08-04T06:21:27;20.50;99.90
49042;DHT22;34859;51.608;11.462;2022-08-04T06:24:15;20.60;99.90
49042;DHT22;34859;51.608;11.462;2022-08-04T06:26:57;20.70;99.90
49042;DHT22;34859;51.608;11.462;2022-08-04T06:29:42;20.80;99.90
49042;DHT22;34859;51.608;11.462;2022-08-04T06:32:28;21.00;99.90
49042;DHT22;34859;51.608;11.462;2022-08-04T06:35:21;21.10;99.90
49042;DHT22;34859;51.608;11.462;2022-08-04T06:38:06;21.20;99.90
49042;DHT22;34859;51.608;11.462;2022-08-04T06:40:52;21.30;99.90
49042;DHT22;34859;51.608;11.462;2022-08-04T06:43:38;21.50;99.90
49042;DHT22;34859;51.608;11.462;2022-08-04T06:46:23;21.70;99.90
49042;DHT22;34859;51.608;11.462;2022-08-04T06:49:07;21.80;99.90
49042;DHT22;34859;51.608;11.462;2022-08-04T06:51:53;22.00;99.90
49042;DHT22;34859;51.608;11.462;2022-08-04T06:54:35;22.10;99.90
49042;DHT22;34859;51.608;11.462;2022-08-04T06:57:25;22.40;99.90
49042;DHT22;34859;51.608;11.462;2022-08-04T07:00:13;22.50;99.90
49042;DHT22;34859;51.608;11.462;2022-08-04T07:02:58;22.60;99.90
49042;DHT22;34859;51.608;11.462;2022-08-04T07:05:42;22.70;99.90
49042;DHT22;34859;51.608;11.462;2022-08-04T07:08:29;22.90;99.90
49042;DHT22;34859;51.608;11.462;2022-08-04T07:11:13;23.10;99.90
49042;DHT22;34859;51.608;11.462;2022-08-04T07:13:58;23.30;99.90
49042;DHT22;34859;51.608;11.462;2022-08-04T07:16:40;23.40;99.90
49042;DHT22;34859;51.608;11.462;2022-08-04T07:19:25;23.60;99.90
49042;DHT22;34859;51.608;11.462;2022-08-04T07:22:09;23.80;99.90
49042;DHT22;34859;51.608;11.462;2022-08-04T07:24:56;23.90;99.90
49042;DHT22;34859;51.608;11.462;2022-08-04T07:27:41;24.10;99.90
49042;DHT22;34859;51.608;11.462;2022-08-04T07:30:27;24.50;99.90
49042;DHT22;34859;51.608;11.462;2022-08-04T07:33:14;24.70;99.90
49042;DHT22;34859;51.608;11.462;2022-08-04T07:35:59;24.80;99.90
49042;DHT22;34859;51.608;11.462;2022-08-04T07:38:43;24.90;99.90
49042;DHT22;34859;51.608;11.462;2022-08-04T07:41:27;25.10;99.90
49042;DHT22;34859;51.608;11.462;2022-08-04T07:44:13;25.30;99.90
49042;DHT22;34859;51.608;11.462;2022-08-04T07:46:58;25.50;99.90
49042;DHT22;34859;51.608;11.462;2022-08-04T07:49:43;25.50;99.90
49042;DHT22;34859;51.608;11.462;2022-08-04T07:52:27;25.70;99.90
49042;DHT22;34859;51.608;11.462;2022-08-04T07:55:12;25.80;99.90
49042;DHT22;34859;51.608;11.462;2022-08-04T07:57:56;26.00;99.90
49042;DHT22;34859;51.608;11.462;2022-08-04T08:00:44;26.20;99.90
49042;DHT22;34859;51.608;11.462;2022-08-04T08:03:29;26.40;99.90
49042;DHT22;34859;51.608;11.462;2022-08-04T08:06:13;26.60;99.90
49042;DHT22;34859;51.608;11.462;2022-08-04T08:08:58;27.00;99.90
49042;DHT22;34859;51.608;11.462;2022-08-04T08:11:45;27.20;99.90
49042;DHT22;34859;51.608;11.462;2022-08-04T08:14:32;27.30;99.90
49042;DHT22;34859;51.608;11.462;2022-08-04T08:17:18;27.50;99.90
49042;DHT22;34859;51.608;11.462;2022-08-04T08:20:03;27.70;99.90
49042;DHT22;34859;51.608;11.462;2022-08-04T08:22:47;27.70;99.90
49042;DHT22;34859;51.608;11.462;2022-08-04T08:25:32;27.80;99.90
49042;DHT22;34859;51.608;11.462;2022-08-04T08:28:14;27.90;99.80
49042;DHT22;34859;51.608;11.462;2022-08-04T08:30:59;28.00;98.00
49042;DHT22;34859;51.608;11.462;2022-08-04T08:33:46;28.10;98.60
49042;DHT22;34859;51.608;11.462;2022-08-04T08:36:37;28.20;99.80
49042;DHT22;34859;51.608;11.462;2022-08-04T08:39:27;28.30;97.90
49042;DHT22;34859;51.608;11.462;2022-08-04T08:42:31;28.30;97.50
49042;DHT22;34859;51.608;11.462;2022-08-04T08:48:46;28.70;98.20
49042;DHT22;34859;51.608;11.462;2022-08-04T08:54:53;28.90;95.70
49042;DHT22;34859;51.608;11.462;2022-08-04T08:58:05;29.10;95.80
49042;DHT22;34859;51.608;11.462;2022-08-04T09:00:55;29.30;95.10
49042;DHT22;34859;51.608;11.462;2022-08-04T09:10:12;29.40;95.10
49042;DHT22;34859;51.608;11.462;2022-08-04T09:13:03;29.50;94.20
49042;DHT22;34859;51.608;11.462;2022-08-04T09:16:06;29.60;94.70
49042;DHT22;34859;51.608;11.462;2022-08-04T09:22:00;29.80;93.30
49042;DHT22;34859;51.608;11.462;2022-08-04T09:27:57;29.90;92.60
49042;DHT22;34859;51.608;11.462;2022-08-04T09:31:05;30.10;92.60
49042;DHT22;34859;51.608;11.462;2022-08-04T09:34:05;30.10;93.90
49042;DHT22;34859;51.608;11.462;2022-08-04T09:37:18;30.20;91.80
49042;DHT22;34859;51.608;11.462;2022-08-04T09:40:26;30.20;92.20
49042;DHT22;34859;51.608;11.462;2022-08-04T09:46:34;30.30;90.00
49042;DHT22;34859;51.608;11.462;2022-08-04T09:49:35;30.40;90.30
49042;DHT22;34859;51.608;11.462;2022-08-04T09:55:59;30.50;90.40
49042;DHT22;34859;51.608;11.462;2022-08-04T10:01:30;30.70;90.30
49042;DHT22;34859;51.608;11.462;2022-08-04T10:04:14;30.70;88.30
49042;DHT22;34859;51.608;11.462;2022-08-04T10:10:46;31.00;86.30
49042;DHT22;34859;51.608;11.462;2022-08-04T10:14:02;31.10;88.90
49042;DHT22;34859;51.608;11.462;2022-08-04T10:17:00;31.10;85.70
49042;DHT22;34859;51.608;11.462;2022-08-04T10:20:10;31.20;85.60
49042;DHT22;34859;51.608;11.462;2022-08-04T10:23:10;31.20;82.50
49042;DHT22;34859;51.608;11.462;2022-08-04T10:29:23;31.20;84.60
49042;DHT22;34859;51.608;11.462;2022-08-04T10:32:25;31.30;85.40
49042;DHT22;34859;51.608;11.462;2022-08-04T10:35:14;31.40;85.80
49042;DHT22;34859;51.608;11.462;2022-08-04T10:41:32;31.70;84.80
49042;DHT22;34859;51.608;11.462;2022-08-04T10:45:01;31.70;81.70
49042;DHT22;34859;51.608;11.462;2022-08-04T10:47:44;31.70;78.60
49042;DHT22;34859;51.608;11.462;2022-08-04T10:50:34;31.70;79.90
49042;DHT22;34859;51.608;11.462;2022-08-04T10:53:21;31.70;79.90
49042;DHT22;34859;51.608;11.462;2022-08-04T10:56:10;31.80;79.30
49042;DHT22;34859;51.608;11.462;2022-08-04T10:59:01;31.90;77.50
49042;DHT22;34859;51.608;11.462;2022-08-04T11:01:49;32.00;77.70
49042;DHT22;34859;51.608;11.462;2022-08-04T11:04:41;31.80;78.70
49042;DHT22;34859;51.608;11.462;2022-08-04T11:07:28;31.90;77.90
49042;DHT22;34859;51.608;11.462;2022-08-04T11:10:14;32.00;78.00
49042;DHT22;34859;51.608;11.462;2022-08-04T11:13:02;32.20;79.20
49042;DHT22;34859;51.608;11.462;2022-08-04T11:15:53;32.20;80.20
49042;DHT22;34859;51.608;11.462;2022-08-04T11:21:46;32.30;77.10
49042;DHT22;34859;51.608;11.462;2022-08-04T11:24:52;32.30;75.50
49042;DHT22;34859;51.608;11.462;2022-08-04T11:31:04;32.40;74.50
49042;DHT22;34859;51.608;11.462;2022-08-04T11:33:51;32.70;73.10
49042;DHT22;34859;51.608;11.462;2022-08-04T11:36:45;32.70;72.20
49042;DHT22;34859;51.608;11.462;2022-08-04T11:39:34;32.70;77.70
49042;DHT22;34859;51.608;11.462;2022-08-04T11:42:22;32.60;73.70
49042;DHT22;34859;51.608;11.462;2022-08-04T11:45:15;32.60;75.30
49042;DHT22;34859;51.608;11.462;2022-08-04T11:48:08;32.70;76.80
49042;DHT22;34859;51.608;11.462;2022-08-04T11:50:54;32.70;75.20
49042;DHT22;34859;51.608;11.462;2022-08-04T11:53:39;32.90;74.70
49042;DHT22;34859;51.608;11.462;2022-08-04T11:56:25;33.20;75.60
49042;DHT22;34859;51.608;11.462;2022-08-04T11:59:10;33.20;72.10
49042;DHT22;34859;51.608;11.462;2022-08-04T12:02:05;33.20;71.00
49042;DHT22;34859;51.608;11.462;2022-08-04T12:05:01;33.30;70.40
49042;DHT22;34859;51.608;11.462;2022-08-04T12:07:54;33.30;70.00
49042;DHT22;34859;51.608;11.462;2022-08-04T12:16:19;33.50;72.00
49042;DHT22;34859;51.608;11.462;2022-08-04T12:19:16;33.40;70.20
49042;DHT22;34859;51.608;11.462;2022-08-04T12:22:02;33.60;70.30
49042;DHT22;34859;51.608;11.462;2022-08-04T12:25:14;33.60;69.20
49042;DHT22;34859;51.608;11.462;2022-08-04T12:28:02;33.60;68.00
49042;DHT22;34859;51.608;11.462;2022-08-04T12:30:54;33.70;67.40
49042;DHT22;34859;51.608;11.462;2022-08-04T12:33:48;33.90;70.10
49042;DHT22;34859;51.608;11.462;2022-08-04T12:36:39;34.10;68.30
49042;DHT22;34859;51.608;11.462;2022-08-04T12:39:26;34.00;68.60
49042;DHT22;34859;51.608;11.462;2022-08-04T12:42:25;33.80;68.00
49042;DHT22;34859;51.608;11.462;2022-08-04T12:45:13;34.00;66.90
49042;DHT22;34859;51.608;11.462;2022-08-04T12:47:58;34.00;67.50
49042;DHT22;34859;51.608;11.462;2022-08-04T12:50:40;34.00;67.60
49042;DHT22;34859;51.608;11.462;2022-08-04T12:53:33;33.90;70.10
49042;DHT22;34859;51.608;11.462;2022-08-04T12:56:25;34.10;67.90
49042;DHT22;34859;51.608;11.462;2022-08-04T12:59:11;34.30;66.30
49042;DHT22;34859;51.608;11.462;2022-08-04T13:01:55;34.40;66.50
49042;DHT22;34859;51.608;11.462;2022-08-04T13:04:44;34.50;65.50
49042;DHT22;34859;51.608;11.462;2022-08-04T13:07:36;34.50;66.50
49042;DHT22;34859;51.608;11.462;2022-08-04T13:10:23;34.40;65.20
49042;DHT22;34859;51.608;11.462;2022-08-04T13:13:15;34.30;66.30
49042;DHT22;34859;51.608;11.462;2022-08-04T13:16:03;34.40;67.30
49042;DHT22;34859;51.608;11.462;2022-08-04T13:18:48;34.30;68.30
49042;DHT22;34859;51.608;11.462;2022-08-04T13:21:34;34.30;67.30
49042;DHT22;34859;51.608;11.462;2022-08-04T13:24:23;34.40;66.50
49042;DHT22;34859;51.608;11.462;2022-08-04T13:27:09;34.40;67.40
49042;DHT22;34859;51.608;11.462;2022-08-04T13:29:56;34.50;65.50
49042;DHT22;34859;51.608;11.462;2022-08-04T13:32:41;34.20;65.00
49042;DHT22;34859;51.608;11.462;2022-08-04T13:35:26;34.20;64.60
49042;DHT22;34859;51.608;11.462;2022-08-04T13:38:12;33.90;66.00
49042;DHT22;34859;51.608;11.462;2022-08-04T13:41:02;33.60;66.50
49042;DHT22;34859;51.608;11.462;2022-08-04T13:43:55;33.50;66.10
49042;DHT22;34859;51.608;11.462;2022-08-04T13:47:06;33.40;66.40
49042;DHT22;34859;51.608;11.462;2022-08-04T13:52:52;33.60;65.60
49042;DHT22;34859;51.608;11.462;2022-08-04T13:55:35;33.70;65.80
49042;DHT22;34859;51.608;11.462;2022-08-04T13:58:23;33.60;65.20
49042;DHT22;34859;51.608;11.462;2022-08-04T14:01:18;33.40;65.70
49042;DHT22;34859;51.608;11.462;2022-08-04T14:04:14;33.30;66.00
49042;DHT22;34859;51.608;11.462;2022-08-04T14:07:12;33.40;65.40
49042;DHT22;34859;51.608;11.462;2022-08-04T14:09:57;33.40;65.20
49042;DHT22;34859;51.608;11.462;2022-08-04T14:12:49;33.40;67.00
49042;DHT22;34859;51.608;11.462;2022-08-04T14:15:41;33.20;67.60
49042;DHT22;34859;51.608;11.462;2022-08-04T14:18:28;33.00;66.40
49042;DHT22;34859;51.608;11.462;2022-08-04T14:21:16;32.90;65.70
49042;DHT22;34859;51.608;11.462;2022-08-04T14:24:00;32.90;66.60
49042;DHT22;34859;51.608;11.462;2022-08-04T14:26:44;32.90;67.70
49042;DHT22;34859;51.608;11.462;2022-08-04T14:29:36;33.10;65.90
49042;DHT22;34859;51.608;11.462;2022-08-04T14:32:21;33.20;65.70
49042;DHT22;34859;51.608;11.462;2022-08-04T14:35:09;33.10;65.10
49042;DHT22;34859;51.608;11.462;2022-08-04T14:37:59;33.20;66.10
49042;DHT22;34859;51.608;11.462;2022-08-04T14:40:44;33.60;63.90
49042;DHT22;34859;51.608;11.462;2022-08-04T14:43:28;33.80;65.60
49042;DHT22;34859;51.608;11.462;2022-08-04T14:46:13;34.10;64.10
49042;DHT22;34859;51.608;11.462;2022-08-04T14:49:11;34.10;64.00
49042;DHT22;34859;51.608;11.462;2022-08-04T14:51:59;34.30;65.10
49042;DHT22;34859;51.608;11.462;2022-08-04T14:54:44;34.40;63.90
49042;DHT22;34859;51.608;11.462;2022-08-04T14:57:29;34.30;64.70
49042;DHT22;34859;51.608;11.462;2022-08-04T15:00:26;34.20;62.90
49042;DHT22;34859;51.608;11.462;2022-08-04T15:03:11;34.00;65.00
49042;DHT22;34859;51.608;11.462;2022-08-04T15:05:57;33.80;65.80
49042;DHT22;34859;51.608;11.462;2022-08-04T15:08:42;33.90;66.10
49042;DHT22;34859;51.608;11.462;2022-08-04T15:11:24;33.80;66.10
49042;DHT22;34859;51.608;11.462;2022-08-04T15:14:08;33.70;63.90
49042;DHT22;34859;51.608;11.462;2022-08-04T15:16:53;33.70;68.40
49042;DHT22;34859;51.608;11.462;2022-08-04T15:19:37;33.80;65.60
49042;DHT22;34859;51.608;11.462;2022-08-04T15:22:22;33.80;68.20
49042;DHT22;34859;51.608;11.462;2022-08-04T15:25:07;33.70;64.90
49042;DHT22;34859;51.608;11.462;2022-08-04T15:27:53;33.90;64.00
49042;DHT22;34859;51.608;11.462;2022-08-04T15:30:38;33.90;65.70
49042;DHT22;34859;51.608;11.462;2022-08-04T15:33:23;33.90;63.10
49042;DHT22;34859;51.608;11.462;2022-08-04T15:42:39;33.90;62.50
49042;DHT22;34859;51.608;11.462;2022-08-04T15:45:25;34.00;62.20
49042;DHT22;34859;51.608;11.462;2022-08-04T15:48:22;34.00;62.10
49042;DHT22;34859;51.608;11.462;2022-08-04T15:51:10;33.90;63.10
49042;DHT22;34859;51.608;11.462;2022-08-04T15:56:43;34.00;63.00
49042;DHT22;34859;51.608;11.462;2022-08-04T16:00:00;33.90;63.40
49042;DHT22;34859;51.608;11.462;2022-08-04T16:02:41;33.80;61.90
49042;DHT22;34859;51.608;11.462;2022-08-04T16:05:30;33.90;61.50
49042;DHT22;34859;51.608;11.462;2022-08-04T16:08:16;33.90;61.60
49042;DHT22;34859;51.608;11.462;2022-08-04T16:11:00;33.80;64.30
49042;DHT22;34859;51.608;11.462;2022-08-04T16:16:50;33.80;61.50
49042;DHT22;34859;51.608;11.462;2022-08-04T16:19:45;33.70;63.60
49042;DHT22;34859;51.608;11.462;2022-08-04T16:22:37;33.60;62.50
49042;DHT22;34859;51.608;11.462;2022-08-04T16:25:43;33.70;61.90
49042;DHT22;34859;51.608;11.462;2022-08-04T16:31:17;33.80;62.10
49042;DHT22;34859;51.608;11.462;2022-08-04T16:34:02;33.70;62.30
49042;DHT22;34859;51.608;11.462;2022-08-04T16:36:57;33.70;61.50
49042;DHT22;34859;51.608;11.462;2022-08-04T16:39:42;33.70;63.50
49042;DHT22;34859;51.608;11.462;2022-08-04T16:42:27;33.80;61.20
49042;DHT22;34859;51.608;11.462;2022-08-04T16:45:11;33.70;64.10
49042;DHT22;34859;51.608;11.462;2022-08-04T16:48:03;33.70;64.60
49042;DHT22;34859;51.608;11.462;2022-08-04T16:50:53;33.60;62.70
49042;DHT22;34859;51.608;11.462;2022-08-04T16:53:44;33.60;63.20
49042;DHT22;34859;51.608;11.462;2022-08-04T16:56:29;33.60;61.80
49042;DHT22;34859;51.608;11.462;2022-08-04T16:59:14;33.60;63.70
49042;DHT22;34859;51.608;11.462;2022-08-04T17:01:56;33.40;63.20
49042;DHT22;34859;51.608;11.462;2022-08-04T17:04:40;33.30;65.20
49042;DHT22;34859;51.608;11.462;2022-08-04T17:07:24;33.30;61.90
49042;DHT22;34859;51.608;11.462;2022-08-04T17:10:05;33.20;61.70
49042;DHT22;34859;51.608;11.462;2022-08-04T17:12:50;33.10;64.70
49042;DHT22;34859;51.608;11.462;2022-08-04T17:15:34;32.90;65.70
49042;DHT22;34859;51.608;11.462;2022-08-04T17:18:24;32.80;66.60
49042;DHT22;34859;51.608;11.462;2022-08-04T17:21:12;32.60;66.60
49042;DHT22;34859;51.608;11.462;2022-08-04T17:23:59;32.50;69.10
49042;DHT22;34859;51.608;11.462;2022-08-04T17:26:41;32.30;69.70
49042;DHT22;34859;51.608;11.462;2022-08-04T17:29:23;32.10;72.20
49042;DHT22;34859;51.608;11.462;2022-08-04T17:32:12;31.90;72.80
49042;DHT22;34859;51.608;11.462;2022-08-04T17:34:59;31.70;73.40
49042;DHT22;34859;51.608;11.462;2022-08-04T17:37:40;31.50;73.60
49042;DHT22;34859;51.608;11.462;2022-08-04T17:40:25;31.40;72.10
49042;DHT22;34859;51.608;11.462;2022-08-04T17:43:09;31.30;73.40
49042;DHT22;34859;51.608;11.462;2022-08-04T17:52:00;30.80;73.90
49042;DHT22;34859;51.608;11.462;2022-08-04T17:54:44;30.60;71.30
49042;DHT22;34859;51.608;11.462;2022-08-04T17:57:28;30.50;74.10
49042;DHT22;34859;51.608;11.462;2022-08-04T18:00:14;30.20;74.40
49042;DHT22;34859;51.608;11.462;2022-08-04T18:02:59;29.90;75.40
49042;DHT22;34859;51.608;11.462;2022-08-04T18:05:43;29.70;76.10
49042;DHT22;34859;51.608;11.462;2022-08-04T18:08:28;29.50;77.80
49042;DHT22;34859;51.608;11.462;2022-08-04T18:11:18;29.30;79.90
49042;DHT22;34859;51.608;11.462;2022-08-04T18:14:02;29.00;82.10
49042;DHT22;34859;51.608;11.462;2022-08-04T18:16:46;28.80;79.70
49042;DHT22;34859;51.608;11.462;2022-08-04T18:19:30;28.70;76.80
49042;DHT22;34859;51.608;11.462;2022-08-04T18:22:14;28.60;79.00
49042;DHT22;34859;51.608;11.462;2022-08-04T18:24:56;28.50;84.20
49042;DHT22;34859;51.608;11.462;2022-08-04T18:27:51;28.40;85.50
49042;DHT22;34859;51.608;11.462;2022-08-04T18:30:36;28.30;82.40
49042;DHT22;34859;51.608;11.462;2022-08-04T18:33:19;28.10;83.80
49042;DHT22;34859;51.608;11.462;2022-08-04T18:36:03;27.90;85.20
49042;DHT22;34859;51.608;11.462;2022-08-04T18:38:47;27.90;80.70
49042;DHT22;34859;51.608;11.462;2022-08-04T18:41:32;27.90;82.40
49042;DHT22;34859;51.608;11.462;2022-08-04T18:44:18;27.60;83.30
49042;DHT22;34859;51.608;11.462;2022-08-04T18:47:03;27.40;86.50
49042;DHT22;34859;51.608;11.462;2022-08-04T18:49:47;27.30;88.20
49042;DHT22;34859;51.608;11.462;2022-08-04T18:52:32;27.20;88.70
49042;DHT22;34859;51.608;11.462;2022-08-04T18:55:16;27.00;88.70
49042;DHT22;34859;51.608;11.462;2022-08-04T18:58:00;26.80;87.40
49042;DHT22;34859;51.608;11.462;2022-08-04T19:00:45;26.60;90.00
49042;DHT22;34859;51.608;11.462;2022-08-04T19:03:29;26.50;89.50
49042;DHT22;34859;51.608;11.462;2022-08-04T19:06:13;26.40;89.60
49042;DHT22;34859;51.608;11.462;2022-08-04T19:08:57;26.30;90.80
49042;DHT22;34859;51.608;11.462;2022-08-04T19:11:42;26.10;90.90
49042;DHT22;34859;51.608;11.462;2022-08-04T19:14:26;26.00;90.20
49042;DHT22;34859;51.608;11.462;2022-08-04T19:17:10;25.80;91.50
49042;DHT22;34859;51.608;11.462;2022-08-04T19:19:54;25.80;91.70
49042;DHT22;34859;51.608;11.462;2022-08-04T19:22:38;25.70;91.20
49042;DHT22;34859;51.608;11.462;2022-08-04T19:25:22;25.60;91.30
49042;DHT22;34859;51.608;11.462;2022-08-04T19:28:06;25.60;90.50
49042;DHT22;34859;51.608;11.462;2022-08-04T19:30:51;25.60;91.00
49042;DHT22;34859;51.608;11.462;2022-08-04T19:33:37;25.50;91.60
49042;DHT22;34859;51.608;11.462;2022-08-04T19:36:22;25.50;91.30
49042;DHT22;34859;51.608;11.462;2022-08-04T19:39:07;25.50;91.10
49042;DHT22;34859;51.608;11.462;2022-08-04T19:41:52;25.80;87.30
49042;DHT22;34859;51.608;11.462;2022-08-04T19:44:36;26.80;84.40
49042;DHT22;34859;51.608;11.462;2022-08-04T19:47:21;27.40;83.50
49042;DHT22;34859;51.608;11.462;2022-08-04T19:50:06;27.60;83.10
49042;DHT22;34859;51.608;11.462;2022-08-04T19:52:51;27.90;83.40
49042;DHT22;34859;51.608;11.462;2022-08-04T19:55:36;28.10;83.70
49042;DHT22;34859;51.608;11.462;2022-08-04T19:58:21;28.20;84.30
49042;DHT22;34859;51.608;11.462;2022-08-04T20:01:01;28.20;85.40
49042;DHT22;34859;51.608;11.462;2022-08-04T20:03:46;28.20;85.70
49042;DHT22;34859;51.608;11.462;2022-08-04T20:06:29;28.00;86.00
49042;DHT22;34859;51.608;11.462;2022-08-04T20:09:13;28.00;86.60
49042;DHT22;34859;51.608;11.462;2022-08-04T20:11:58;27.90;87.00
49042;DHT22;34859;51.608;11.462;2022-08-04T20:14:42;27.80;87.10
49042;DHT22;34859;51.608;11.462;2022-08-04T20:17:26;27.70;87.40
49042;DHT22;34859;51.608;11.462;2022-08-04T20:20:11;27.70;87.80
49042;DHT22;34859;51.608;11.462;2022-08-04T20:22:55;27.60;88.20
49042;DHT22;34859;51.608;11.462;2022-08-04T20:25:40;27.60;88.40
49042;DHT22;34859;51.608;11.462;2022-08-04T20:28:24;27.40;88.80
49042;DHT22;34859;51.608;11.462;2022-08-04T20:31:10;27.30;88.90
49042;DHT22;34859;51.608;11.462;2022-08-04T20:33:54;27.30;89.40
49042;DHT22;34859;51.608;11.462;2022-08-04T20:36:38;27.30;90.00
49042;DHT22;34859;51.608;11.462;2022-08-04T20:39:24;27.20;90.00
49042;DHT22;34859;51.608;11.462;2022-08-04T20:42:08;27.20;90.20
49042;DHT22;34859;51.608;11.462;2022-08-04T20:44:53;27.10;90.40
49042;DHT22;34859;51.608;11.462;2022-08-04T20:47:37;27.00;90.80
49042;DHT22;34859;51.608;11.462;2022-08-04T20:50:21;26.80;91.00
49042;DHT22;34859;51.608;11.462;2022-08-04T20:53:06;26.70;91.20